Time;durP1;ratioP1;P1;durP2;ratioP2;P2;SDS_P1;SDS_P2;PMS_P1;PMS_P2;Temp;Humidity;BMP_temperature;BMP_pressure;BME280_temperature;BME280_humidity;BME280_pressure;Samples;Min_cycle;Max_cycle;Signal;HPM_P1;HPM_P2
2023/01/05 00:01:51;;;;;;;3.97;2.10;;;9.60;99.90;;;;;;5012528;28;20420;-66
2023/01/05 00:04:17;;;;;;;3.47;1.43;;;9.70;99.90;;;;;;5011748;28;20460;-67
2023/01/05 00:06:43;;;;;;;3.53;1.77;;;9.70;99.90;;;;;;5011620;28;20844;-67
2023/01/05 00:09:15;;;;;;;10.67;1.83;;;9.70;99.90;;;;;;5011440;28;20427;-65
2023/01/05 00:22:51;;;;;;;6.27;2.30;;;9.80;99.90;;;;;;5012198;28;20428;-66
2023/01/05 00:25:25;;;;;;;6.57;2.17;;;9.80;99.90;;;;;;5012025;28;20439;-66
2023/01/05 00:27:52;;;;;;;5.50;1.83;;;9.80;99.90;;;;;;5012098;28;20522;-66
2023/01/05 00:30:21;;;;;;;3.77;1.53;;;9.80;99.90;;;;;;5011654;28;20426;-66
2023/01/05 00:32:47;;;;;;;4.67;1.93;;;9.70;99.90;;;;;;5011161;28;20415;-66
2023/01/05 00:35:14;;;;;;;2.40;1.50;;;9.80;99.90;;;;;;5010912;28;20455;-66
2023/01/05 00:37:40;;;;;;;3.00;1.90;;;9.90;99.90;;;;;;5011492;28;20191;-65
2023/01/05 00:40:08;;;;;;;5.00;1.50;;;10.00;99.90;;;;;;5011459;28;20411;-66
2023/01/05 00:42:34;;;;;;;8.73;1.80;;;10.10;99.90;;;;;;5010090;28;20832;-66
2023/01/05 00:45:00;;;;;;;6.83;1.60;;;10.10;99.90;;;;;;5010964;28;20498;-66
2023/01/05 00:47:25;;;;;;;8.73;1.80;;;10.00;99.90;;;;;;5011461;28;20179;-66
2023/01/05 00:49:51;;;;;;;3.47;1.50;;;10.00;99.90;;;;;;5011032;28;20184;-66
2023/01/05 00:52:17;;;;;;;2.60;1.47;;;10.00;99.90;;;;;;4993805;28;20259;-66
2023/01/05 00:54:42;;;;;;;2.90;1.53;;;10.00;99.90;;;;;;5011942;28;20220;-66
2023/01/05 00:57:12;;;;;;;2.37;1.77;;;10.00;99.90;;;;;;5015109;28;20209;-66
2023/01/05 00:59:37;;;;;;;1.90;1.50;;;10.00;99.90;;;;;;5015319;28;20520;-66
2023/01/05 01:02:03;;;;;;;4.70;2.20;;;10.00;99.90;;;;;;5015289;28;20432;-66
2023/01/05 01:04:32;;;;;;;3.97;1.67;;;10.00;99.90;;;;;;5015208;28;20278;-67
2023/01/05 01:06:58;;;;;;;2.67;1.40;;;10.00;99.90;;;;;;5015454;28;20195;-67
2023/01/05 01:09:25;;;;;;;4.43;1.63;;;10.00;99.90;;;;;;5015356;28;20422;-67
2023/01/05 01:11:50;;;;;;;5.93;1.57;;;10.00;99.90;;;;;;5012646;28;20865;-66
2023/01/05 01:14:16;;;;;;;5.37;2.30;;;10.00;99.90;;;;;;5015092;28;20549;-67
2023/01/05 01:16:42;;;;;;;7.30;2.27;;;10.00;99.90;;;;;;5015006;28;20303;-67
2023/01/05 01:19:12;;;;;;;3.30;1.40;;;10.00;99.90;;;;;;5014990;28;20185;-68
2023/01/05 01:21:38;;;;;;;6.33;1.90;;;10.00;99.90;;;;;;5014844;28;20175;-67
2023/01/05 01:24:04;;;;;;;3.67;2.20;;;10.00;99.90;;;;;;5014861;28;20443;-67
2023/01/05 01:26:29;;;;;;;6.70;1.43;;;10.00;99.90;;;;;;5014952;28;20180;-66
2023/01/05 01:28:55;;;;;;;7.13;1.90;;;10.00;99.90;;;;;;5014855;28;20200;-66
2023/01/05 01:31:20;;;;;;;5.13;1.97;;;9.90;99.90;;;;;;5015097;28;20255;-67
2023/01/05 01:33:46;;;;;;;9.97;1.67;;;9.90;99.90;;;;;;5014831;28;20220;-67
2023/01/05 01:36:12;;;;;;;2.90;1.77;;;9.80;99.90;;;;;;5014613;28;20225;-66
2023/01/05 01:38:37;;;;;;;4.30;1.60;;;9.80;99.90;;;;;;5014565;28;20186;-68
2023/01/05 01:41:03;;;;;;;4.30;2.07;;;9.80;99.90;;;;;;5015017;28;20191;-67
2023/01/05 01:43:45;;;;;;;3.97;1.53;;;9.80;99.90;;;;;;5014799;28;20186;-67
2023/01/05 01:46:12;;;;;;;6.17;1.80;;;9.80;99.90;;;;;;5013806;28;20477;-67
2023/01/05 01:48:43;;;;;;;4.63;1.90;;;9.80;99.90;;;;;;5013432;28;20436;-67
2023/01/05 01:51:25;;;;;;;3.83;1.87;;;9.80;99.90;;;;;;5013713;28;20415;-67
2023/01/05 01:53:54;;;;;;;4.83;1.20;;;9.80;99.90;;;;;;5013614;28;20500;-67
2023/01/05 01:56:23;;;;;;;4.10;1.90;;;9.80;99.90;;;;;;5013329;28;20451;-66
2023/01/05 01:58:50;;;;;;;11.07;2.67;;;9.80;99.90;;;;;;5014446;28;20440;-67
2023/01/05 02:01:15;;;;;;;7.20;1.60;;;9.80;99.90;;;;;;5014307;28;20412;-67
2023/01/05 02:03:41;;;;;;;5.80;1.77;;;9.90;99.90;;;;;;5013924;28;20480;-67
2023/01/05 02:06:07;;;;;;;7.53;1.47;;;10.00;99.90;;;;;;5014125;28;20180;-67
2023/01/05 02:08:34;;;;;;;6.97;2.67;;;10.00;99.90;;;;;;5014210;28;20413;-67
2023/01/05 02:11:02;;;;;;;4.57;2.10;;;10.00;99.90;;;;;;5014478;28;20183;-66
2023/01/05 02:13:46;;;;;;;4.40;1.60;;;9.90;99.90;;;;;;5009559;28;20501;-67
2023/01/05 02:16:39;;;;;;;2.90;2.17;;;10.00;99.90;;;;;;5012419;28;20423;-67
2023/01/05 02:19:29;;;;;;;3.60;1.40;;;10.00;99.90;;;;;;5014203;28;20409;-67
2023/01/05 02:22:15;;;;;;;7.60;1.97;;;10.00;99.90;;;;;;5014827;28;20410;-67
2023/01/05 02:24:46;;;;;;;4.03;1.73;;;10.00;99.90;;;;;;5008293;28;20590;-67
2023/01/05 02:27:43;;;;;;;6.20;1.50;;;10.00;99.90;;;;;;5014441;28;20418;-67
2023/01/05 02:30:46;;;;;;;4.53;1.90;;;10.00;99.90;;;;;;5012880;28;20423;-67
2023/01/05 02:33:26;;;;;;;7.40;1.67;;;10.00;99.90;;;;;;5011689;28;20640;-66
2023/01/05 02:36:03;;;;;;;3.17;1.47;;;9.90;99.90;;;;;;5013910;28;20435;-67
2023/01/05 02:38:42;;;;;;;2.30;1.57;;;10.00;99.90;;;;;;5013174;28;20415;-67
2023/01/05 02:41:31;;;;;;;5.73;1.97;;;10.00;99.90;;;;;;5011241;28;20423;-67
2023/01/05 02:43:59;;;;;;;8.67;1.87;;;10.00;99.90;;;;;;5013529;28;20454;-67
2023/01/05 02:46:24;;;;;;;3.67;1.20;;;10.00;99.90;;;;;;5013248;28;20793;-67
2023/01/05 02:48:55;;;;;;;3.00;1.73;;;10.00;99.90;;;;;;5013223;28;20433;-67
2023/01/05 02:51:35;;;;;;;3.40;1.77;;;10.10;99.90;;;;;;5012638;28;20191;-67
2023/01/05 02:54:23;;;;;;;2.90;1.40;;;10.10;99.90;;;;;;5013192;28;20638;-67
2023/01/05 02:57:06;;;;;;;6.30;1.47;;;10.10;99.90;;;;;;5007990;28;20407;-67
2023/01/05 02:59:39;;;;;;;6.73;1.80;;;10.10;99.90;;;;;;5005090;28;20491;-66
2023/01/05 03:02:23;;;;;;;12.33;1.80;;;10.10;99.90;;;;;;4992672;28;20464;-67
2023/01/05 03:04:57;;;;;;;4.00;1.63;;;10.10;99.90;;;;;;5013037;28;20462;-67
2023/01/05 03:07:27;;;;;;;1.30;1.20;;;10.10;99.90;;;;;;5013103;28;20477;-66
2023/01/05 03:09:53;;;;;;;5.73;1.93;;;10.10;99.90;;;;;;5012536;28;20426;-66
2023/01/05 03:15:22;;;;;;;4.47;1.30;;;10.10;99.90;;;;;;5012508;28;20226;-66
2023/01/05 03:17:57;;;;;;;10.23;1.67;;;10.10;99.90;;;;;;5011292;28;20418;-66
2023/01/05 03:20:27;;;;;;;7.87;4.33;;;10.10;99.90;;;;;;5011515;28;20407;-66
2023/01/05 03:37:17;;;;;;;6.00;1.20;;;10.10;99.90;;;;;;5011610;28;20480;-65
2023/01/05 03:39:45;;;;;;;3.10;1.83;;;10.20;99.90;;;;;;5011673;28;20415;-66
2023/01/05 03:42:12;;;;;;;3.50;1.07;;;10.20;99.90;;;;;;5011519;28;20559;-66
2023/01/05 03:44:39;;;;;;;5.57;1.60;;;10.20;99.90;;;;;;5011731;28;20434;-66
2023/01/05 03:47:05;;;;;;;3.37;1.43;;;10.10;99.90;;;;;;5004880;28;20430;-66
2023/01/05 03:49:31;;;;;;;4.33;1.57;;;10.10;99.90;;;;;;5008490;28;20420;-66
2023/01/05 03:51:57;;;;;;;3.17;1.80;;;10.10;99.90;;;;;;5011993;28;20179;-66
2023/01/05 03:54:23;;;;;;;6.07;1.53;;;10.00;99.90;;;;;;5011512;28;20203;-65
2023/01/05 03:56:48;;;;;;;10.23;2.27;;;10.00;99.90;;;;;;5011338;28;20176;-67
2023/01/05 03:59:14;;;;;;;3.10;1.43;;;9.90;99.90;;;;;;5008898;28;20643;-66
2023/01/05 04:01:40;;;;;;;6.53;1.33;;;9.80;99.90;;;;;;5011561;28;20232;-66
2023/01/05 04:04:05;;;;;;;2.53;1.20;;;9.80;99.90;;;;;;5010900;28;20648;-66
2023/01/05 04:06:31;;;;;;;4.30;1.10;;;9.80;99.90;;;;;;5011360;28;20189;-66
2023/01/05 04:08:57;;;;;;;10.03;1.70;;;9.70;99.90;;;;;;5010830;28;20401;-66
2023/01/05 04:11:23;;;;;;;7.83;1.47;;;9.70;99.90;;;;;;5049109;23;20284;-70
2023/01/05 04:13:49;;;;;;;8.80;1.93;;;9.70;99.90;;;;;;5030681;28;20206;-68
2023/01/05 04:16:15;;;;;;;5.63;1.63;;;9.70;99.90;;;;;;5032325;28;20837;-69
2023/01/05 04:18:40;;;;;;;4.40;1.40;;;9.70;99.90;;;;;;5032751;28;20225;-69
2023/01/05 04:21:06;;;;;;;3.97;1.20;;;9.70;99.90;;;;;;5014173;28;20202;-69
2023/01/05 04:23:32;;;;;;;2.57;1.53;;;9.70;99.90;;;;;;5032234;28;20260;-68
2023/01/05 04:25:58;;;;;;;2.30;1.13;;;9.70;99.90;;;;;;5032771;28;20843;-69
2023/01/05 04:28:24;;;;;;;1.87;1.40;;;9.70;99.90;;;;;;5032769;28;20545;-69
2023/01/05 04:30:54;;;;;;;4.03;1.57;;;9.70;99.90;;;;;;5032052;28;20187;-68
2023/01/05 04:33:21;;;;;;;4.13;1.10;;;9.70;99.90;;;;;;5032412;28;20456;-69
2023/01/05 04:35:46;;;;;;;10.97;1.73;;;9.70;99.90;;;;;;5031435;28;20793;-69
2023/01/05 04:38:12;;;;;;;3.00;1.40;;;9.60;99.90;;;;;;5031783;28;20411;-69
2023/01/05 04:40:38;;;;;;;4.47;1.47;;;9.60;99.90;;;;;;5015245;28;20179;-69
2023/01/05 04:43:05;;;;;;;1.20;1.10;;;9.60;99.90;;;;;;5028897;28;20421;-68
2023/01/05 04:45:31;;;;;;;3.77;1.30;;;9.50;99.90;;;;;;5015488;28;20450;-70
2023/01/05 04:47:56;;;;;;;4.17;1.40;;;9.50;99.90;;;;;;5032267;28;20956;-68
2023/01/05 04:50:22;;;;;;;4.00;1.80;;;9.50;99.90;;;;;;5031469;28;20599;-69
2023/01/05 04:52:48;;;;;;;4.50;1.50;;;9.50;99.90;;;;;;5026017;28;20223;-68
2023/01/05 04:55:14;;;;;;;5.30;1.57;;;9.50;99.90;;;;;;5029647;28;20429;-69
2023/01/05 04:57:39;;;;;;;4.23;1.17;;;9.40;99.90;;;;;;5031157;28;20174;-68
2023/01/05 05:00:05;;;;;;;3.03;1.40;;;9.50;99.90;;;;;;5032542;28;20657;-69
2023/01/05 05:02:31;;;;;;;7.37;1.80;;;9.40;99.90;;;;;;5032124;28;20253;-69
2023/01/05 05:04:57;;;;;;;5.40;1.80;;;9.40;99.90;;;;;;5031722;28;20546;-69
2023/01/05 05:07:22;;;;;;;3.57;1.40;;;9.40;99.90;;;;;;5031317;28;20190;-69
2023/01/05 05:09:48;;;;;;;4.00;1.07;;;9.40;99.90;;;;;;5028171;28;20640;-69
2023/01/05 05:12:14;;;;;;;1.17;1.07;;;9.40;99.90;;;;;;5031114;28;20296;-69
2023/01/05 05:14:40;;;;;;;2.83;1.17;;;9.40;99.90;;;;;;5032105;28;20205;-69
2023/01/05 05:17:06;;;;;;;2.03;1.60;;;9.40;99.90;;;;;;5031477;28;20426;-69
2023/01/05 05:19:32;;;;;;;8.93;1.80;;;9.50;99.90;;;;;;5031708;28;20251;-69
2023/01/05 05:21:58;;;;;;;4.50;1.40;;;9.40;99.90;;;;;;5031300;28;21031;-69
2023/01/05 05:24:23;;;;;;;5.50;1.27;;;9.40;99.90;;;;;;5031391;28;20499;-69
2023/01/05 05:26:49;;;;;;;0.90;0.90;;;9.40;99.90;;;;;;5031485;28;20177;-69
2023/01/05 05:29:15;;;;;;;2.43;1.10;;;9.40;99.90;;;;;;5014458;28;20598;-69
2023/01/05 05:31:40;;;;;;;1.93;1.30;;;9.40;99.90;;;;;;5031433;28;20215;-69
2023/01/05 05:34:06;;;;;;;1.20;1.00;;;9.40;99.90;;;;;;5030947;28;20672;-70
2023/01/05 05:36:32;;;;;;;7.10;1.60;;;9.40;99.90;;;;;;5031001;28;20215;-69
2023/01/05 05:38:57;;;;;;;5.97;1.63;;;9.30;99.90;;;;;;5013062;28;20171;-69
2023/01/05 05:41:24;;;;;;;5.97;1.90;;;9.30;99.90;;;;;;5032384;28;20443;-69
2023/01/05 05:43:49;;;;;;;5.03;1.93;;;9.30;99.90;;;;;;5031610;28;20183;-69
2023/01/05 05:46:15;;;;;;;5.50;2.33;;;9.30;99.90;;;;;;5035402;28;20432;-69
2023/01/05 05:48:41;;;;;;;5.83;1.57;;;9.40;99.90;;;;;;5034302;28;20615;-68
2023/01/05 05:51:06;;;;;;;5.57;1.90;;;9.40;99.90;;;;;;5034628;28;20260;-69
2023/01/05 05:53:32;;;;;;;9.23;2.00;;;9.40;99.90;;;;;;5034604;28;20196;-68
2023/01/05 05:55:58;;;;;;;5.50;1.43;;;9.40;99.90;;;;;;5034817;28;20181;-69
2023/01/05 05:58:23;;;;;;;5.23;2.07;;;9.30;99.90;;;;;;5034237;28;20410;-69
2023/01/05 06:00:49;;;;;;;4.60;1.83;;;9.40;99.90;;;;;;5030458;28;20198;-69
2023/01/05 06:03:15;;;;;;;2.93;1.80;;;9.30;99.90;;;;;;5016641;28;20241;-69
2023/01/05 06:05:40;;;;;;;1.40;1.27;;;9.30;99.90;;;;;;5033940;28;20643;-69
2023/01/05 06:08:06;;;;;;;2.10;1.53;;;9.20;99.90;;;;;;5034028;28;20222;-68
2023/01/05 06:10:31;;;;;;;3.87;1.10;;;9.10;99.90;;;;;;5034228;28;20170;-69
2023/01/05 06:12:57;;;;;;;3.63;1.07;;;9.00;99.90;;;;;;5033706;28;20273;-70
2023/01/05 06:15:23;;;;;;;2.00;1.00;;;9.00;99.90;;;;;;5034568;28;20180;-71
2023/01/05 06:17:49;;;;;;;1.23;0.87;;;9.00;99.90;;;;;;5033673;28;20326;-71
2023/01/05 06:20:15;;;;;;;1.17;1.10;;;8.90;99.90;;;;;;5034037;28;20450;-71
2023/01/05 06:22:41;;;;;;;0.97;0.93;;;8.90;99.90;;;;;;5033550;28;20195;-70
2023/01/05 06:25:08;;;;;;;1.93;0.87;;;8.80;99.90;;;;;;5033947;28;20524;-70
2023/01/05 06:27:34;;;;;;;0.80;0.80;;;8.80;99.90;;;;;;5033502;28;20861;-70
2023/01/05 06:30:00;;;;;;;2.17;0.70;;;8.70;99.90;;;;;;5027775;28;20418;-70
2023/01/05 06:32:25;;;;;;;0.80;0.80;;;8.70;99.90;;;;;;5028627;28;20558;-70
2023/01/05 06:34:51;;;;;;;2.80;0.87;;;8.70;99.90;;;;;;5033995;28;20200;-69
2023/01/05 06:37:16;;;;;;;1.33;0.97;;;8.60;99.90;;;;;;5033457;28;20716;-69
2023/01/05 06:39:42;;;;;;;1.30;0.87;;;8.60;99.90;;;;;;5033209;28;20260;-69
2023/01/05 06:42:08;;;;;;;1.07;1.00;;;8.60;99.90;;;;;;5029899;28;20191;-69
2023/01/05 06:44:33;;;;;;;4.40;2.03;;;8.50;99.90;;;;;;5033579;28;20203;-71
2023/01/05 06:46:59;;;;;;;1.53;0.70;;;8.50;99.90;;;;;;5033127;28;20180;-69
2023/01/05 06:49:24;;;;;;;1.43;0.70;;;8.60;99.90;;;;;;5032909;28;20211;-69
2023/01/05 06:51:50;;;;;;;1.10;0.80;;;8.60;99.90;;;;;;5032688;28;20200;-69
2023/01/05 06:54:15;;;;;;;0.80;0.70;;;8.70;99.90;;;;;;5032758;28;20791;-70
2023/01/05 06:56:41;;;;;;;2.70;1.17;;;8.70;99.90;;;;;;5032398;28;20509;-69
2023/01/05 06:59:07;;;;;;;1.70;1.03;;;8.70;99.90;;;;;;5033197;28;20165;-70
2023/01/05 07:01:32;;;;;;;0.60;0.60;;;8.70;99.90;;;;;;5033498;28;20616;-69
2023/01/05 07:03:58;;;;;;;0.80;0.80;;;8.70;99.90;;;;;;5033344;28;20181;-69
2023/01/05 07:06:24;;;;;;;1.07;0.97;;;8.70;99.90;;;;;;5032441;28;20572;-70
2023/01/05 07:08:49;;;;;;;2.07;1.10;;;8.70;99.90;;;;;;5033141;28;20428;-70
2023/01/05 07:11:15;;;;;;;1.10;1.00;;;8.70;99.90;;;;;;5028538;28;20558;-69
2023/01/05 07:13:40;;;;;;;2.20;1.00;;;8.70;99.90;;;;;;5031803;28;20229;-68
2023/01/05 07:16:11;;;;;;;0.97;0.93;;;8.70;99.90;;;;;;5032433;28;20195;-69
2023/01/05 07:18:36;;;;;;;1.10;0.80;;;8.60;99.90;;;;;;5031675;28;20422;-69
2023/01/05 07:21:02;;;;;;;7.27;0.93;;;8.70;99.90;;;;;;5031830;28;20196;-69
2023/01/05 07:23:28;;;;;;;1.83;1.37;;;8.80;99.90;;;;;;5031313;28;20574;-70
2023/01/05 07:25:54;;;;;;;1.53;0.97;;;8.70;99.90;;;;;;5031829;28;20618;-69
2023/01/05 07:28:20;;;;;;;1.47;0.70;;;8.70;99.90;;;;;;5031754;28;20433;-72
2023/01/05 07:30:51;;;;;;;0.80;0.80;;;8.70;99.90;;;;;;5031949;28;20204;-71
2023/01/05 07:33:17;;;;;;;1.07;0.97;;;8.80;99.90;;;;;;5032505;28;20261;-69
2023/01/05 07:35:42;;;;;;;0.77;0.70;;;8.80;99.90;;;;;;5031754;28;20426;-69
2023/01/05 07:38:08;;;;;;;1.10;0.90;;;8.70;99.90;;;;;;5031598;28;20408;-70
2023/01/05 07:40:35;;;;;;;1.23;0.80;;;8.70;99.90;;;;;;5013583;28;20185;-69
2023/01/05 07:43:01;;;;;;;0.97;0.73;;;8.70;99.90;;;;;;5031478;28;20180;-70
2023/01/05 07:45:26;;;;;;;1.20;0.80;;;8.70;99.90;;;;;;5028876;28;20415;-70
2023/01/05 07:47:52;;;;;;;0.80;0.80;;;8.70;99.90;;;;;;5029004;28;20169;-69
2023/01/05 07:50:17;;;;;;;1.47;1.37;;;8.60;99.90;;;;;;5031290;28;20176;-70
2023/01/05 07:52:43;;;;;;;1.73;0.87;;;8.70;99.90;;;;;;5030517;28;20227;-70
2023/01/05 07:55:09;;;;;;;0.90;0.73;;;8.70;99.90;;;;;;5030990;28;20208;-70
2023/01/05 07:57:35;;;;;;;0.80;0.80;;;8.70;99.90;;;;;;5031760;28;20525;-70
2023/01/05 08:00:01;;;;;;;0.70;0.70;;;8.60;99.90;;;;;;5031209;28;20458;-69
2023/01/05 08:02:26;;;;;;;1.60;0.87;;;8.60;99.90;;;;;;5040087;28;20210;-70
2023/01/05 08:04:52;;;;;;;0.60;0.60;;;8.60;99.90;;;;;;5036926;28;21598;-70
2023/01/05 08:07:18;;;;;;;0.80;0.80;;;8.60;99.90;;;;;;5034704;28;20233;-70
2023/01/05 08:12:29;;;;;;;1.53;0.80;;;8.90;99.90;;;;;;4990044;28;1104292;-69
2023/01/05 08:14:55;;;;;;;1.10;0.83;;;8.80;99.90;;;;;;5031751;28;20302;-70
2023/01/05 08:17:21;;;;;;;0.87;0.87;;;8.70;99.90;;;;;;5032175;28;20439;-70
2023/01/05 08:19:47;;;;;;;1.10;0.80;;;8.70;99.90;;;;;;5031898;28;20650;-70
2023/01/05 08:22:12;;;;;;;1.10;0.70;;;8.80;99.90;;;;;;5032147;28;20255;-70
2023/01/05 08:24:38;;;;;;;0.60;0.60;;;8.70;99.90;;;;;;5031703;28;20426;-70
2023/01/05 08:27:03;;;;;;;2.00;0.80;;;8.70;99.90;;;;;;5031843;28;20322;-70
2023/01/05 08:29:29;;;;;;;0.70;0.70;;;8.70;99.90;;;;;;5031618;28;20180;-70
2023/01/05 08:31:55;;;;;;;0.70;0.70;;;8.70;99.90;;;;;;5031943;28;20276;-69
2023/01/05 08:34:21;;;;;;;0.70;0.70;;;8.70;99.90;;;;;;5031735;28;20211;-70
2023/01/05 08:36:46;;;;;;;2.70;0.77;;;8.70;99.90;;;;;;5024809;28;20224;-69
2023/01/05 08:39:12;;;;;;;2.83;0.80;;;8.60;99.90;;;;;;5029520;28;20174;-69
2023/01/05 08:41:39;;;;;;;0.80;0.60;;;8.60;99.90;;;;;;5031601;28;20206;-71
2023/01/05 08:44:07;;;;;;;1.13;0.70;;;8.60;99.90;;;;;;5029773;28;20960;-70
2023/01/05 08:46:35;;;;;;;2.30;0.73;;;8.60;99.90;;;;;;5031304;28;20418;-70
2023/01/05 08:49:02;;;;;;;1.03;0.90;;;8.60;99.90;;;;;;5032698;28;20502;-70
2023/01/05 08:51:29;;;;;;;0.87;0.70;;;8.60;99.90;;;;;;5023856;28;20522;-70
2023/01/05 08:53:55;;;;;;;75.77;40.97;;;8.60;99.90;;;;;;5030773;28;20483;-69
2023/01/05 08:56:23;;;;;;;9.00;6.33;;;8.90;99.90;;;;;;5030851;28;20440;-68
2023/01/05 08:58:50;;;;;;;25.97;15.40;;;8.90;99.90;;;;;;5030249;28;20851;-68
2023/01/05 09:01:17;;;;;;;26.73;16.27;;;8.90;99.90;;;;;;5030147;28;20465;-68
2023/01/05 09:03:44;;;;;;;3.23;1.43;;;9.00;99.90;;;;;;5013070;28;20414;-69
2023/01/05 09:06:11;;;;;;;0.90;0.90;;;8.80;99.90;;;;;;5013693;28;20931;-70
2023/01/05 09:08:38;;;;;;;0.70;0.70;;;8.60;99.90;;;;;;5025813;28;20449;-70
2023/01/05 09:11:12;;;;;;;1.63;0.90;;;8.60;99.90;;;;;;5031740;28;20453;-70
2023/01/05 09:13:38;;;;;;;0.73;0.70;;;8.50;99.90;;;;;;5008816;28;20824;-70
2023/01/05 09:16:13;;;;;;;0.93;0.80;;;8.50;99.90;;;;;;5031942;28;20407;-70
2023/01/05 09:18:40;;;;;;;1.10;0.80;;;8.50;99.90;;;;;;5037248;28;20402;-70
2023/01/05 09:21:08;;;;;;;2.03;0.90;;;8.50;99.90;;;;;;5037739;28;20786;-70
2023/01/05 09:23:35;;;;;;;1.00;0.90;;;8.50;99.90;;;;;;5032889;28;20411;-69
2023/01/05 09:26:04;;;;;;;1.83;0.60;;;8.50;99.90;;;;;;5034431;28;20411;-69
2023/01/05 09:28:29;;;;;;;1.40;1.17;;;8.40;99.90;;;;;;5035957;28;20409;-69
2023/01/05 09:30:55;;;;;;;1.53;0.80;;;8.40;99.90;;;;;;5036665;28;20426;-70
2023/01/05 09:33:21;;;;;;;1.10;0.80;;;8.40;99.90;;;;;;5035938;28;20193;-72
2023/01/05 09:35:55;;;;;;;0.80;0.70;;;8.40;99.90;;;;;;5035473;28;20213;-69
2023/01/05 09:38:22;;;;;;;1.47;1.00;;;8.40;99.90;;;;;;5035025;28;20596;-69
2023/01/05 09:40:50;;;;;;;1.70;0.90;;;8.40;99.90;;;;;;5034667;28;20531;-69
2023/01/05 09:43:30;;;;;;;0.80;0.80;;;8.40;99.90;;;;;;5034705;28;20413;-68
2023/01/05 09:45:57;;;;;;;1.57;1.40;;;8.50;99.90;;;;;;5030727;28;20406;-70
2023/01/05 09:48:23;;;;;;;3.43;1.00;;;8.50;99.90;;;;;;5036625;28;20425;-70
2023/01/05 09:50:51;;;;;;;1.37;0.80;;;8.60;99.90;;;;;;5036327;28;20803;-69
2023/01/05 09:53:22;;;;;;;2.30;0.80;;;8.60;99.90;;;;;;5036485;28;20832;-69
2023/01/05 09:55:49;;;;;;;1.63;0.90;;;8.80;99.90;;;;;;5036584;28;20406;-69
2023/01/05 09:58:20;;;;;;;1.23;0.80;;;8.90;99.90;;;;;;5018451;28;20419;-69
2023/01/05 10:01:13;;;;;;;1.20;0.90;;;9.00;99.90;;;;;;5035174;28;20455;-69
2023/01/05 10:04:00;;;;;;;0.90;0.90;;;9.00;99.90;;;;;;5029057;28;20422;-70
2023/01/05 10:06:31;;;;;;;1.83;1.07;;;9.10;99.90;;;;;;5035206;28;20407;-69
2023/01/05 10:08:57;;;;;;;4.20;1.20;;;9.10;99.90;;;;;;5038678;28;20422;-70
2023/01/05 10:14:18;;;;;;;2.30;0.83;;;9.10;99.90;;;;;;5033997;28;20477;-70
2023/01/05 10:16:45;;;;;;;1.53;0.83;;;9.20;99.90;;;;;;5034958;28;20511;-70
2023/01/05 10:19:17;;;;;;;2.50;0.90;;;9.20;99.90;;;;;;5034718;28;20408;-70
2023/01/05 10:22:13;;;;;;;2.60;0.80;;;9.20;99.90;;;;;;5031970;28;20517;-70
2023/01/05 10:25:01;;;;;;;2.27;1.00;;;9.20;99.90;;;;;;5040943;23;20487;-71
2023/01/05 10:27:38;;;;;;;1.80;1.10;;;9.40;99.90;;;;;;5030433;28;20456;-71
2023/01/05 10:30:20;;;;;;;3.03;0.87;;;9.40;99.90;;;;;;5033123;28;20414;-70
2023/01/05 10:32:49;;;;;;;1.20;0.70;;;9.40;99.90;;;;;;5036328;28;20487;-69
2023/01/05 10:35:29;;;;;;;2.30;1.30;;;9.40;99.90;;;;;;5031869;28;20551;-71
2023/01/05 10:38:21;;;;;;;1.00;0.87;;;9.40;99.90;;;;;;5033035;28;20517;-71
2023/01/05 10:41:44;;;;;;;2.10;1.00;;;9.40;99.90;;;;;;5040024;28;20757;-71
2023/01/05 10:44:47;;;;;;;1.60;0.70;;;9.40;99.90;;;;;;4912799;29;20557;-70
2023/01/05 10:47:13;;;;;;;1.73;1.63;;;9.50;99.90;;;;;;4913351;29;20945;-70
2023/01/05 10:49:42;;;;;;;2.93;1.10;;;9.60;99.90;;;;;;4998998;28;20439;-71
2023/01/05 10:52:14;;;;;;;2.13;0.90;;;9.60;99.90;;;;;;5030585;28;20417;-69
2023/01/05 10:55:00;;;;;;;4.10;1.00;;;9.70;99.90;;;;;;5031685;28;20819;-70
2023/01/05 10:57:28;;;;;;;3.27;0.90;;;9.70;99.90;;;;;;5031202;28;20758;-71
2023/01/05 10:59:55;;;;;;;4.20;1.20;;;9.60;99.90;;;;;;5031669;28;20461;-71
2023/01/05 11:02:22;;;;;;;0.90;0.73;;;9.60;99.90;;;;;;5031504;28;20407;-70
2023/01/05 11:04:49;;;;;;;2.67;1.20;;;9.60;99.90;;;;;;5031610;28;20445;-70
2023/01/05 11:07:14;;;;;;;6.73;1.40;;;9.70;99.90;;;;;;5031217;28;20471;-70
2023/01/05 11:09:42;;;;;;;2.70;1.07;;;9.70;99.90;;;;;;5031197;28;20429;-70
2023/01/05 11:12:19;;;;;;;3.03;1.03;;;9.70;99.90;;;;;;5031433;28;20637;-71
2023/01/05 11:14:50;;;;;;;3.57;1.27;;;9.60;99.90;;;;;;5019497;28;20536;-70
2023/01/05 11:17:20;;;;;;;1.50;1.07;;;9.60;99.90;;;;;;5030943;28;20408;-71
2023/01/05 11:19:50;;;;;;;8.00;0.90;;;9.50;99.90;;;;;;5039395;28;20959;-71
2023/01/05 11:22:29;;;;;;;4.87;1.60;;;9.60;99.90;;;;;;5031648;28;20422;-71
2023/01/05 11:25:12;;;;;;;1.83;1.00;;;9.60;99.90;;;;;;5038102;28;20734;-69
2023/01/05 11:27:37;;;;;;;3.27;1.10;;;9.60;99.90;;;;;;5015426;28;20728;-71
2023/01/05 11:30:15;;;;;;;2.23;1.03;;;9.60;99.90;;;;;;5038943;28;20514;-70
2023/01/05 11:32:44;;;;;;;2.70;1.10;;;9.50;99.90;;;;;;5025337;28;20192;-70
2023/01/05 11:35:24;;;;;;;1.77;0.93;;;9.50;99.90;;;;;;5022505;28;20526;-70
2023/01/05 11:37:49;;;;;;;2.83;1.20;;;9.50;99.90;;;;;;5030483;28;20401;-70
2023/01/05 11:40:17;;;;;;;3.40;0.90;;;9.50;99.90;;;;;;5026589;28;20810;-70
2023/01/05 11:42:44;;;;;;;1.40;1.10;;;9.60;99.90;;;;;;5030816;28;20602;-70
2023/01/05 11:45:22;;;;;;;6.33;0.90;;;9.60;99.90;;;;;;5031017;28;20411;-71
2023/01/05 11:47:54;;;;;;;8.20;1.80;;;9.60;99.90;;;;;;5030939;28;20494;-72
2023/01/05 11:50:31;;;;;;;2.17;0.97;;;9.60;99.90;;;;;;5030707;28;20423;-70
2023/01/05 11:53:01;;;;;;;4.13;1.40;;;9.60;99.90;;;;;;5030669;28;20500;-71
2023/01/05 11:55:37;;;;;;;3.60;1.00;;;9.60;99.90;;;;;;5032279;28;20796;-70
2023/01/05 11:58:24;;;;;;;2.67;1.07;;;9.60;99.90;;;;;;5025344;28;20479;-70
2023/01/05 12:01:26;;;;;;;3.90;1.10;;;9.50;99.90;;;;;;5022569;28;20449;-69
2023/01/05 12:04:02;;;;;;;3.07;1.40;;;9.60;99.90;;;;;;5027800;28;20927;-70
2023/01/05 12:06:53;;;;;;;3.40;1.20;;;9.60;99.90;;;;;;5026386;28;20441;-70
2023/01/05 12:09:49;;;;;;;5.20;1.10;;;9.70;99.90;;;;;;5027828;28;20429;-70
2023/01/05 12:12:35;;;;;;;1.37;1.03;;;9.70;99.90;;;;;;5006643;28;20476;-70
2023/01/05 12:15:27;;;;;;;3.93;1.13;;;9.70;99.90;;;;;;5025916;28;20504;-69
2023/01/05 12:18:04;;;;;;;3.20;1.13;;;9.70;99.90;;;;;;5026070;28;21068;-70
2023/01/05 12:20:54;;;;;;;2.27;1.20;;;9.70;99.90;;;;;;5027247;28;20562;-69
2023/01/05 12:23:48;;;;;;;1.20;1.00;;;9.70;99.90;;;;;;5022781;28;20848;-70
2023/01/05 12:26:19;;;;;;;3.83;1.53;;;9.80;99.90;;;;;;5027053;28;20422;-70
2023/01/05 12:29:02;;;;;;;6.33;1.30;;;9.80;99.90;;;;;;5029556;28;20498;-70
2023/01/05 12:31:52;;;;;;;3.80;0.90;;;9.80;99.90;;;;;;5010764;28;20506;-70
2023/01/05 12:34:56;;;;;;;4.10;1.33;;;9.90;99.90;;;;;;5026044;28;20466;-71
2023/01/05 12:37:37;;;;;;;2.00;0.90;;;9.90;99.90;;;;;;5015113;28;20429;-70
2023/01/05 12:40:06;;;;;;;6.13;1.50;;;10.00;99.90;;;;;;5027722;28;20416;-70
2023/01/05 12:43:00;;;;;;;5.70;1.20;;;9.90;99.90;;;;;;5027624;28;20395;-70
2023/01/05 12:45:51;;;;;;;10.40;1.37;;;9.80;99.90;;;;;;5027708;28;21034;-70
2023/01/05 12:48:29;;;;;;;3.20;1.43;;;9.80;99.90;;;;;;5024660;28;20517;-70
2023/01/05 12:51:28;;;;;;;2.80;1.27;;;9.80;99.90;;;;;;5025805;28;20978;-70
2023/01/05 12:54:05;;;;;;;3.90;1.20;;;9.90;99.90;;;;;;5023872;28;20556;-71
2023/01/05 12:56:57;;;;;;;1.57;1.13;;;10.00;99.90;;;;;;5025996;28;20493;-70
2023/01/05 12:59:32;;;;;;;3.40;1.20;;;10.00;99.90;;;;;;5029211;28;20425;-69
2023/01/05 13:02:01;;;;;;;1.07;1.07;;;9.90;99.90;;;;;;5025589;28;20763;-69
2023/01/05 13:04:39;;;;;;;3.67;1.30;;;9.90;99.90;;;;;;5028027;28;21003;-70
2023/01/05 13:07:24;;;;;;;3.00;1.07;;;9.80;99.90;;;;;;5028640;28;20441;-70
2023/01/05 13:09:56;;;;;;;2.87;1.20;;;9.70;99.90;;;;;;5028643;28;20524;-70
2023/01/05 13:12:22;;;;;;;1.73;0.97;;;9.70;99.90;;;;;;5029099;28;20407;-68
2023/01/05 13:15:06;;;;;;;3.80;1.33;;;9.80;99.90;;;;;;5023070;28;20472;-69
2023/01/05 13:17:35;;;;;;;1.87;0.83;;;9.80;99.90;;;;;;5029223;28;20413;-70
2023/01/05 13:20:24;;;;;;;4.43;1.20;;;9.80;99.90;;;;;;5025508;28;20492;-70
2023/01/05 13:22:57;;;;;;;0.97;0.80;;;9.80;99.90;;;;;;5023265;28;20429;-69
2023/01/05 13:25:26;;;;;;;4.30;1.10;;;9.80;99.90;;;;;;5028824;28;20409;-70
2023/01/05 13:27:52;;;;;;;0.90;0.90;;;9.70;99.90;;;;;;5028668;28;20493;-70
2023/01/05 13:30:51;;;;;;;1.03;1.00;;;9.70;99.90;;;;;;5016612;28;20877;-70
2023/01/05 13:33:26;;;;;;;1.93;1.10;;;9.70;99.90;;;;;;5028546;28;20194;-71
2023/01/05 13:36:13;;;;;;;1.03;0.93;;;9.60;99.90;;;;;;5013052;28;20509;-69
2023/01/05 13:38:57;;;;;;;1.30;1.20;;;9.60;99.90;;;;;;5018927;28;20520;-70
2023/01/05 13:41:51;;;;;;;1.37;1.07;;;9.40;99.90;;;;;;5028696;28;20449;-69
2023/01/05 13:44:31;;;;;;;3.37;1.47;;;9.40;99.90;;;;;;5028937;28;20532;-70
2023/01/05 13:47:09;;;;;;;1.93;1.20;;;9.30;99.90;;;;;;5028302;28;20453;-69
2023/01/05 13:50:04;;;;;;;1.23;0.80;;;9.30;99.90;;;;;;5026934;28;20412;-70